Time;durP1;ratioP1;P1;durP2;ratioP2;P2;SDS_P1;SDS_P2;PMS_P1;PMS_P2;Temp;Humidity;BMP_temperature;BMP_pressure;BME280_temperature;BME280_humidity;BME280_pressure;Samples;Min_cycle;Max_cycle;Signal;HPM_P1;HPM_P2
2022/05/11 00:01:52;;;;;;;7.15;6.45;;;;;;;14.42;100.00;96009.34;5010783;28;24997;-75
2022/05/11 00:04:19;;;;;;;6.93;6.25;;;;;;;14.39;100.00;96008.78;5013568;28;25031;-74
2022/05/11 00:06:49;;;;;;;7.78;6.03;;;;;;;14.30;100.00;96005.06;5013643;28;24439;-74
2022/05/11 00:09:16;;;;;;;7.55;6.75;;;;;;;14.22;100.00;96007.41;5013716;28;24440;-74
2022/05/11 00:11:44;;;;;;;8.70;6.85;;;;;;;14.20;100.00;96001.47;5013933;28;24435;-74
2022/05/11 00:14:11;;;;;;;7.70;6.87;;;;;;;14.20;100.00;95997.13;5013460;28;24498;-74
2022/05/11 00:16:38;;;;;;;7.63;6.83;;;;;;;14.20;100.00;95994.50;5013173;28;24916;-74
2022/05/11 00:19:04;;;;;;;8.57;7.53;;;;;;;14.20;100.00;95993.66;5013518;28;24440;-75
2022/05/11 00:21:31;;;;;;;8.57;7.13;;;;;;;14.19;100.00;95992.00;4998356;28;24500;-75
2022/05/11 00:23:59;;;;;;;7.70;6.90;;;;;;;14.22;100.00;95992.59;5013502;28;24440;-75
2022/05/11 00:26:25;;;;;;;9.25;6.80;;;;;;;14.19;100.00;95984.19;5013158;28;24445;-75
2022/05/11 00:28:52;;;;;;;9.68;7.35;;;;;;;14.06;100.00;95980.84;5013493;28;24798;-75
2022/05/11 00:31:18;;;;;;;8.02;7.00;;;;;;;13.99;100.00;95983.06;5013191;28;24444;-75
2022/05/11 00:33:44;;;;;;;8.77;7.18;;;;;;;13.96;100.00;95986.69;5012962;28;25003;-75
2022/05/11 00:36:13;;;;;;;7.72;7.03;;;;;;;13.93;100.00;95988.69;5013359;28;24464;-75
2022/05/11 00:38:41;;;;;;;6.60;6.00;;;;;;;13.97;100.00;95988.34;5013175;28;24440;-75
2022/05/11 00:41:09;;;;;;;8.38;7.40;;;;;;;13.95;100.00;95985.06;5013452;28;24450;-75
2022/05/11 00:43:38;;;;;;;8.48;7.35;;;;;;;13.83;100.00;95991.16;4997462;28;24432;-75
2022/05/11 00:46:12;;;;;;;8.10;7.28;;;;;;;13.76;100.00;95987.31;5012924;28;24881;-75
2022/05/11 00:51:31;;;;;;;8.20;7.33;;;;;;;13.64;100.00;95981.19;5012652;28;24486;-75
2022/05/11 00:53:58;;;;;;;8.60;7.63;;;;;;;13.84;100.00;95978.97;5011091;28;24432;-75
2022/05/11 00:56:27;;;;;;;8.82;7.25;;;;;;;13.93;100.00;95971.28;5012655;28;24460;-75
2022/05/11 00:58:58;;;;;;;8.20;6.70;;;;;;;13.96;100.00;95965.03;5012925;28;24474;-75
2022/05/11 01:01:25;;;;;;;7.40;6.70;;;;;;;13.97;100.00;95964.91;5012849;28;24437;-75
2022/05/11 01:03:56;;;;;;;8.57;7.40;;;;;;;14.00;100.00;95958.66;5012427;28;24436;-74
2022/05/11 01:06:23;;;;;;;7.80;6.93;;;;;;;13.88;100.00;95967.38;5012662;28;24487;-75
2022/05/11 01:08:50;;;;;;;8.00;7.22;;;;;;;13.79;100.00;95972.31;5013157;28;24539;-75
2022/05/11 01:11:17;;;;;;;7.60;6.88;;;;;;;13.73;100.00;95964.13;5012151;28;24486;-74
2022/05/11 01:13:46;;;;;;;7.85;7.05;;;;;;;13.70;100.00;95965.16;5011387;28;24490;-75
2022/05/11 01:16:12;;;;;;;10.98;7.72;;;;;;;13.74;100.00;95971.81;5012071;28;24464;-74
2022/05/11 01:18:40;;;;;;;8.98;7.22;;;;;;;13.65;100.00;95972.47;5012603;28;24444;-75
2022/05/11 01:21:08;;;;;;;8.93;6.93;;;;;;;13.55;100.00;95972.28;5012356;28;24502;-75
2022/05/11 01:23:42;;;;;;;7.93;6.88;;;;;;;13.54;100.00;95969.81;5012445;28;25024;-75
2022/05/11 01:26:09;;;;;;;7.82;6.68;;;;;;;13.56;100.00;95960.09;5012174;28;24791;-75
2022/05/11 01:28:41;;;;;;;8.15;7.35;;;;;;;13.57;100.00;95966.97;5012591;28;24431;-75
2022/05/11 01:31:10;;;;;;;8.10;7.17;;;;;;;13.55;100.00;95961.88;5012432;28;24826;-74
2022/05/11 01:33:40;;;;;;;8.05;7.28;;;;;;;13.41;100.00;95964.63;5012116;28;24439;-75
2022/05/11 01:36:15;;;;;;;8.45;7.60;;;;;;;13.37;100.00;95964.97;5011589;28;25059;-75
2022/05/11 01:38:44;;;;;;;12.20;7.38;;;;;;;13.35;100.00;95966.84;5012025;28;25161;-75
2022/05/11 01:41:16;;;;;;;8.50;7.17;;;;;;;13.37;100.00;95968.41;5012290;28;24524;-75
2022/05/11 01:43:43;;;;;;;10.35;7.90;;;;;;;13.37;100.00;95968.41;5011967;28;24436;-75
2022/05/11 01:46:09;;;;;;;11.37;7.40;;;;;;;13.42;100.00;95966.31;5011814;28;24519;-76
2022/05/11 01:48:36;;;;;;;8.00;7.20;;;;;;;13.32;100.00;95963.53;5011824;28;25032;-75
2022/05/11 01:51:04;;;;;;;7.93;6.80;;;;;;;13.31;100.00;95968.81;5012032;28;24444;-74
2022/05/11 01:53:30;;;;;;;8.45;7.65;;;;;;;13.25;100.00;95964.91;5011963;28;24436;-74
2022/05/11 01:55:57;;;;;;;8.15;7.40;;;;;;;13.24;100.00;95962.41;5011315;28;25016;-75
2022/05/11 01:58:25;;;;;;;7.90;7.15;;;;;;;13.25;100.00;95967.50;5011828;28;24436;-74
2022/05/11 02:00:52;;;;;;;8.45;7.65;;;;;;;13.01;100.00;95959.59;5011865;28;24444;-75
2022/05/11 02:03:20;;;;;;;8.23;7.13;;;;;;;12.78;100.00;95963.78;5011121;28;25230;-74
2022/05/11 02:08:31;;;;;;;7.78;7.00;;;;;;;12.78;100.00;95962.94;5006225;28;24793;-74
2022/05/11 02:10:58;;;;;;;9.35;7.53;;;;;;;12.80;100.00;95961.91;5011721;28;24528;-75
2022/05/11 02:13:28;;;;;;;8.35;7.60;;;;;;;12.68;100.00;95960.16;5011369;28;24447;-74
2022/05/11 02:15:54;;;;;;;8.00;7.30;;;;;;;12.72;100.00;95964.22;5010396;28;24436;-75
2022/05/11 02:18:22;;;;;;;8.10;7.30;;;;;;;12.66;100.00;95951.63;5019613;22;25036;-76
2022/05/11 02:20:48;;;;;;;9.88;8.25;;;;;;;12.49;100.00;95954.53;5011233;28;24861;-76
2022/05/11 02:23:16;;;;;;;8.10;7.30;;;;;;;12.39;100.00;95943.13;5011151;28;24486;-75
2022/05/11 02:25:47;;;;;;;8.80;7.90;;;;;;;12.21;100.00;95956.38;5010588;28;24524;-75
2022/05/11 02:28:15;;;;;;;10.60;7.95;;;;;;;12.11;100.00;95948.38;4994833;28;24985;-76
2022/05/11 02:30:44;;;;;;;8.70;7.72;;;;;;;12.02;100.00;95946.38;4991536;28;24441;-75
2022/05/11 02:33:12;;;;;;;8.60;7.65;;;;;;;11.98;100.00;95946.69;4991377;28;24440;-75
2022/05/11 02:35:39;;;;;;;8.98;8.07;;;;;;;11.85;100.00;95949.25;4991322;28;24441;-75
2022/05/11 02:38:07;;;;;;;9.35;8.20;;;;;;;11.75;100.00;95945.53;4991335;28;24852;-76
2022/05/11 02:40:37;;;;;;;8.80;7.87;;;;;;;11.68;100.00;95952.91;4991480;28;24484;-74
2022/05/11 02:43:05;;;;;;;9.85;8.30;;;;;;;11.64;100.00;95946.22;4991726;28;24514;-75
2022/05/11 02:45:33;;;;;;;15.80;8.60;;;;;;;11.61;100.00;95952.47;4991884;28;24867;-76
2022/05/11 02:48:02;;;;;;;9.47;7.83;;;;;;;11.65;100.00;95947.09;4991046;28;24507;-76
2022/05/11 02:50:31;;;;;;;11.25;8.57;;;;;;;11.65;100.00;95945.31;4991285;28;24507;-75
2022/05/11 02:52:58;;;;;;;21.65;8.85;;;;;;;11.63;100.00;95945.41;4991073;28;24437;-76
2022/05/11 02:55:24;;;;;;;9.68;7.60;;;;;;;11.57;100.00;95951.00;4990642;28;24456;-75
2022/05/11 02:57:51;;;;;;;9.35;7.88;;;;;;;11.60;100.00;95947.34;4990930;28;24517;-75
2022/05/11 03:00:19;;;;;;;8.87;8.10;;;;;;;11.61;100.00;95954.22;4991164;28;24532;-76
2022/05/11 03:02:46;;;;;;;10.00;8.25;;;;;;;11.67;100.00;95948.63;4990966;28;24444;-76
2022/05/11 03:05:14;;;;;;;10.40;8.00;;;;;;;11.72;100.00;95943.16;4991208;28;24436;-76
2022/05/11 03:07:41;;;;;;;8.63;7.30;;;;;;;11.82;100.00;95947.63;4991080;28;24818;-75
2022/05/11 03:10:09;;;;;;;8.63;7.78;;;;;;;11.91;100.00;95948.03;4990816;28;24444;-75
2022/05/11 03:12:35;;;;;;;7.75;7.07;;;;;;;12.00;100.00;95942.22;4990757;28;24540;-76
2022/05/11 03:15:03;;;;;;;9.45;7.90;;;;;;;12.01;100.00;95943.88;4991124;28;24469;-75
2022/05/11 03:17:30;;;;;;;8.05;7.35;;;;;;;12.03;100.00;95947.22;4990774;28;24537;-75
2022/05/11 03:19:56;;;;;;;7.78;7.07;;;;;;;11.94;100.00;95948.66;4990777;28;24475;-76
2022/05/11 03:22:24;;;;;;;8.68;7.65;;;;;;;11.88;100.00;95943.03;4990670;28;24947;-75
2022/05/11 03:24:51;;;;;;;9.68;7.53;;;;;;;11.77;100.00;95946.28;4990513;28;24445;-75
2022/05/11 03:27:18;;;;;;;8.38;7.28;;;;;;;11.83;100.00;95941.56;4990667;28;24441;-76
2022/05/11 03:29:45;;;;;;;8.30;7.50;;;;;;;11.96;100.00;95933.81;4990760;28;24437;-76
2022/05/11 03:34:55;;;;;;;9.00;7.80;;;;;;;12.24;100.00;95943.22;4990577;28;24447;-75
2022/05/11 03:37:23;;;;;;;8.00;7.20;;;;;;;12.29;100.00;95935.94;4991884;28;25028;-75
2022/05/11 03:39:50;;;;;;;7.32;6.65;;;;;;;12.34;100.00;95938.22;4992648;28;24532;-75
2022/05/11 03:42:19;;;;;;;11.40;6.93;;;;;;;12.31;100.00;95930.63;4992644;28;24444;-75
2022/05/11 03:44:46;;;;;;;8.00;7.20;;;;;;;12.38;100.00;95937.06;4992415;28;24433;-76
2022/05/11 03:47:12;;;;;;;7.45;6.75;;;;;;;12.42;100.00;95932.50;4993005;28;24448;-75
2022/05/11 03:49:39;;;;;;;7.25;6.55;;;;;;;12.43;100.00;95934.19;4992515;28;24462;-75
2022/05/11 03:52:06;;;;;;;8.70;7.18;;;;;;;12.43;100.00;95926.38;4992427;28;25001;-76
2022/05/11 03:54:34;;;;;;;11.25;6.53;;;;;;;12.43;100.00;95929.81;4993501;28;24513;-75
2022/05/11 03:57:01;;;;;;;8.20;7.18;;;;;;;12.47;100.00;95933.03;4994235;28;24453;-75
2022/05/11 03:59:27;;;;;;;7.60;6.85;;;;;;;12.47;100.00;95933.03;4994212;28;24532;-76
2022/05/11 04:01:53;;;;;;;8.10;6.95;;;;;;;12.45;100.00;95927.09;4993785;28;24795;-75
2022/05/11 04:04:20;;;;;;;6.90;6.30;;;;;;;12.46;100.00;95923.56;4993998;28;24791;-75
2022/05/11 04:06:46;;;;;;;7.13;6.43;;;;;;;12.48;100.00;95935.53;4993946;28;25074;-75
2022/05/11 04:09:13;;;;;;;7.30;6.60;;;;;;;12.50;100.00;95930.25;4994304;28;24491;-75
2022/05/11 04:11:40;;;;;;;6.57;5.97;;;;;;;12.52;100.00;95925.75;4994148;28;24495;-76
2022/05/11 04:14:07;;;;;;;7.00;6.30;;;;;;;12.43;100.00;95932.41;4993507;28;24433;-75
2022/05/11 04:16:34;;;;;;;10.27;6.50;;;;;;;12.41;100.00;95930.84;4993551;28;24441;-75
2022/05/11 04:19:01;;;;;;;7.50;6.80;;;;;;;12.33;100.00;95932.19;4994154;28;24451;-75
2022/05/11 04:21:28;;;;;;;8.10;7.32;;;;;;;11.92;100.00;95924.56;4994185;28;24425;-75
2022/05/11 04:23:54;;;;;;;8.20;7.40;;;;;;;11.60;100.00;95924.84;4993110;28;24456;-75
2022/05/11 04:26:21;;;;;;;9.20;7.50;;;;;;;11.37;100.00;95922.91;4993690;28;24503;-75
2022/05/11 04:28:48;;;;;;;7.57;6.82;;;;;;;11.20;100.00;95930.88;4997875;28;24432;-74
2022/05/11 04:31:15;;;;;;;8.10;7.30;;;;;;;11.08;100.00;95927.31;4994179;28;24445;-75
2022/05/11 04:33:42;;;;;;;8.57;7.78;;;;;;;11.02;100.00;95930.31;4993787;28;24846;-75
2022/05/11 04:36:08;;;;;;;8.63;7.77;;;;;;;11.11;100.00;95935.72;4993732;28;24444;-75
2022/05/11 04:38:35;;;;;;;7.68;6.88;;;;;;;11.28;100.00;95936.44;4992887;28;25072;-75
2022/05/11 04:41:02;;;;;;;9.13;7.07;;;;;;;11.48;100.00;95930.81;4993325;28;24520;-75
2022/05/11 04:43:28;;;;;;;10.02;7.53;;;;;;;11.63;100.00;95934.19;4993179;28;24791;-75
2022/05/11 04:45:58;;;;;;;8.82;7.47;;;;;;;11.68;100.00;95937.34;4993302;28;24429;-75
2022/05/11 04:48:25;;;;;;;7.57;6.87;;;;;;;11.82;100.00;95936.44;4993361;28;24469;-75
2022/05/11 04:50:51;;;;;;;7.57;6.88;;;;;;;11.96;100.00;95930.38;4993090;28;24847;-75
2022/05/11 04:53:18;;;;;;;7.53;6.80;;;;;;;12.05;100.00;95934.94;4993325;28;24441;-75
2022/05/11 04:55:46;;;;;;;7.75;6.95;;;;;;;12.07;100.00;95922.72;4993707;28;24478;-75
2022/05/11 04:58:13;;;;;;;8.85;6.90;;;;;;;12.05;100.00;95933.22;4992966;28;25053;-75
2022/05/11 05:00:39;;;;;;;8.95;7.25;;;;;;;12.06;100.00;95932.28;4992581;28;24436;-76
2022/05/11 05:03:10;;;;;;;10.40;7.63;;;;;;;11.96;100.00;95938.16;4992647;28;24464;-74
2022/05/11 05:05:37;;;;;;;8.25;7.40;;;;;;;11.75;100.00;95930.78;4993250;28;24436;-75
2022/05/11 05:08:04;;;;;;;8.57;7.25;;;;;;;11.75;100.00;95935.16;4993051;28;24433;-75
2022/05/11 05:10:31;;;;;;;8.75;7.72;;;;;;;11.75;100.00;95938.59;4993291;28;24819;-75
2022/05/11 05:13:03;;;;;;;8.13;7.13;;;;;;;11.93;100.00;95938.34;4992608;28;24998;-75
2022/05/11 05:15:30;;;;;;;9.40;6.65;;;;;;;11.91;100.00;95933.28;4991886;28;25023;-75
2022/05/11 05:17:57;;;;;;;7.88;7.07;;;;;;;11.93;100.00;95944.38;4992758;28;24496;-75
2022/05/11 05:20:24;;;;;;;7.90;7.20;;;;;;;12.25;100.00;95941.44;4992966;28;24488;-76
2022/05/11 05:22:51;;;;;;;7.75;7.05;;;;;;;12.38;100.00;95944.84;4992514;28;24885;-75
2022/05/11 05:25:17;;;;;;;7.38;6.68;;;;;;;12.47;100.00;95948.63;4992760;28;24440;-75
2022/05/11 05:27:44;;;;;;;8.82;6.97;;;;;;;12.55;100.00;95949.75;4992752;28;24445;-75
2022/05/11 05:33:07;;;;;;;8.33;6.97;;;;;;;12.65;100.00;95939.59;4899395;29;24562;-74
2022/05/11 05:35:34;;;;;;;7.70;7.00;;;;;;;12.80;100.00;95950.69;4973238;28;24839;-75
2022/05/11 05:38:03;;;;;;;7.20;6.50;;;;;;;12.92;100.00;95952.44;4998795;28;25009;-74
2022/05/11 05:40:30;;;;;;;8.40;7.00;;;;;;;12.98;100.00;95959.00;4990345;28;24529;-74
2022/05/11 05:42:56;;;;;;;9.23;6.87;;;;;;;13.05;100.00;95955.88;4991832;28;24487;-74
2022/05/11 05:45:23;;;;;;;7.93;6.72;;;;;;;13.14;100.00;95953.56;4992675;28;24437;-74
2022/05/11 05:47:49;;;;;;;7.97;7.00;;;;;;;13.28;100.00;95950.84;4991711;28;24449;-74
2022/05/11 05:50:15;;;;;;;8.75;6.90;;;;;;;13.50;100.00;95952.75;4992142;28;24440;-74
2022/05/11 05:52:49;;;;;;;7.43;6.43;;;;;;;13.69;100.00;95954.88;4989873;28;24627;-75
2022/05/11 05:55:18;;;;;;;9.48;6.65;;;;;;;13.85;100.00;95942.38;4986386;28;24444;-74
2022/05/11 05:57:44;;;;;;;7.33;6.67;;;;;;;14.00;100.00;95948.25;4991767;28;24561;-74
2022/05/11 06:00:11;;;;;;;8.27;7.15;;;;;;;14.06;100.00;95953.00;4991704;28;24846;-74
2022/05/11 06:02:37;;;;;;;6.70;6.10;;;;;;;14.22;100.00;95952.69;4991979;28;24834;-74
2022/05/11 06:05:04;;;;;;;6.97;6.28;;;;;;;14.32;100.00;95945.88;4992037;28;24444;-75
2022/05/11 06:07:31;;;;;;;10.02;6.68;;;;;;;14.39;100.00;95954.88;4991877;28;24433;-74
2022/05/11 06:09:59;;;;;;;7.85;6.43;;;;;;;14.45;100.00;95953.59;4992645;28;24795;-75
2022/05/11 06:12:26;;;;;;;7.65;6.25;;;;;;;14.65;100.00;95950.34;4991942;28;25005;-74
2022/05/11 06:14:52;;;;;;;8.23;6.35;;;;;;;14.88;100.00;95958.19;4991544;28;24440;-74
2022/05/11 06:17:23;;;;;;;7.13;5.90;;;;;;;15.05;100.00;95949.88;4991489;28;24869;-74
2022/05/11 06:19:50;;;;;;;11.57;5.85;;;;;;;15.26;100.00;95949.97;4991825;28;24540;-74
2022/05/11 06:22:16;;;;;;;7.50;5.82;;;;;;;15.39;100.00;95950.69;4991816;28;25049;-74
2022/05/11 06:24:42;;;;;;;6.30;5.37;;;;;;;15.63;100.00;95950.50;4982720;28;24838;-73
2022/05/11 06:27:15;;;;;;;8.93;5.80;;;;;;;15.61;100.00;95954.19;4990961;28;25044;-77
2022/05/11 06:29:42;;;;;;;7.87;5.70;;;;;;;15.64;100.00;95948.72;4990087;28;24533;-76
2022/05/11 06:32:09;;;;;;;8.40;5.90;;;;;;;15.78;100.00;95953.69;4990992;28;24439;-75
2022/05/11 06:34:35;;;;;;;7.73;5.60;;;;;;;15.94;100.00;95948.03;4991584;28;24441;-75
2022/05/11 06:37:02;;;;;;;10.27;5.57;;;;;;;16.05;100.00;95945.38;4991148;28;25061;-75
2022/05/11 06:39:28;;;;;;;5.50;4.90;;;;;;;16.20;100.00;95949.38;4990988;28;24993;-75
2022/05/11 06:41:55;;;;;;;9.57;5.57;;;;;;;16.33;100.00;95943.13;4992223;28;24440;-75
2022/05/11 06:44:22;;;;;;;8.27;5.57;;;;;;;16.53;100.00;95938.84;4992232;28;24448;-75
2022/05/11 06:46:50;;;;;;;6.72;4.82;;;;;;;16.76;100.00;95940.41;4991795;28;24435;-75
2022/05/11 06:49:17;;;;;;;7.55;4.97;;;;;;;16.77;100.00;95941.22;4991786;28;25008;-75
2022/05/11 06:51:43;;;;;;;7.15;4.90;;;;;;;17.05;100.00;95939.69;4989633;28;24884;-73
2022/05/11 06:59:48;;;;;;;5.90;4.40;;;;;;;17.67;99.30;95936.00;4991202;28;24895;-75
2022/05/11 07:02:14;;;;;;;5.87;4.73;;;;;;;17.90;99.04;95932.19;4990732;28;24424;-75
2022/05/11 07:04:41;;;;;;;5.18;4.55;;;;;;;18.12;97.73;95931.06;4991391;28;24437;-75
2022/05/11 07:07:08;;;;;;;8.13;5.03;;;;;;;18.39;96.39;95929.53;4991001;28;24440;-75
2022/05/11 07:09:36;;;;;;;12.27;4.50;;;;;;;18.61;94.80;95928.38;4991081;28;24601;-75
2022/05/11 07:12:20;;;;;;;6.53;4.93;;;;;;;18.81;91.36;95926.59;4990557;28;24448;-75
2022/05/11 07:14:51;;;;;;;6.72;4.38;;;;;;;19.20;92.84;95921.16;4991081;28;24794;-75
2022/05/11 07:17:26;;;;;;;6.78;4.43;;;;;;;19.40;88.63;95920.09;4990711;28;25001;-74
2022/05/11 07:19:54;;;;;;;8.60;5.20;;;;;;;19.40;87.58;95921.91;4990889;28;24974;-75
2022/05/11 07:22:20;;;;;;;6.25;4.38;;;;;;;19.58;87.07;95920.97;4990809;28;24440;-76
2022/05/11 07:24:47;;;;;;;5.32;4.30;;;;;;;19.80;86.60;95919.75;4990918;28;24847;-76
2022/05/11 07:27:13;;;;;;;5.67;4.10;;;;;;;20.13;87.31;95921.81;4990258;28;24464;-74
2022/05/11 07:29:40;;;;;;;5.93;4.18;;;;;;;20.51;83.19;95915.44;4990691;28;24986;-74
2022/05/11 07:32:09;;;;;;;7.30;4.57;;;;;;;20.51;83.89;95912.78;4990189;28;24433;-78
2022/05/11 07:34:36;;;;;;;5.00;4.07;;;;;;;20.87;81.90;95924.03;4990266;28;24579;-74
2022/05/11 07:37:02;;;;;;;5.50;3.63;;;;;;;20.85;79.13;95917.28;4990585;28;24445;-75
2022/05/11 07:39:29;;;;;;;5.30;4.00;;;;;;;21.05;77.34;95921.31;4990294;28;25002;-75
2022/05/11 07:41:55;;;;;;;5.77;3.50;;;;;;;21.04;74.89;95917.03;4989839;28;24852;-75
2022/05/11 07:44:22;;;;;;;10.30;3.92;;;;;;;21.09;74.39;95919.19;4990487;28;24464;-75
2022/05/11 07:46:49;;;;;;;10.40;3.67;;;;;;;21.07;74.02;95919.38;4990482;28;24437;-75
2022/05/11 07:49:17;;;;;;;5.85;3.55;;;;;;;20.99;74.17;95908.81;4990159;28;24429;-75
2022/05/11 07:51:45;;;;;;;6.97;3.80;;;;;;;21.11;74.11;95910.16;4990849;28;24440;-74
2022/05/11 07:54:12;;;;;;;6.38;3.58;;;;;;;21.47;76.17;95916.09;4990451;28;24436;-75
2022/05/11 08:02:08;;;;;;;6.78;4.00;;;;;;;22.34;72.28;95913.13;4991006;28;24495;-75
2022/05/11 08:04:36;;;;;;;4.00;3.35;;;;;;;22.62;70.29;95903.00;4990678;28;24536;-75
2022/05/11 08:07:04;;;;;;;5.18;3.80;;;;;;;22.81;68.01;95905.31;4990147;28;24437;-75
2022/05/11 08:09:31;;;;;;;3.67;2.95;;;;;;;23.03;65.36;95902.97;4990690;28;24435;-75
2022/05/11 08:11:57;;;;;;;7.80;3.63;;;;;;;23.14;65.85;95905.25;4990322;28;24806;-75
2022/05/11 08:14:24;;;;;;;3.58;3.03;;;;;;;22.87;66.01;95906.44;4990523;28;24523;-75
2022/05/11 08:16:52;;;;;;;4.63;3.40;;;;;;;23.18;64.82;95902.09;4990474;28;24548;-75
2022/05/11 08:19:19;;;;;;;4.22;3.30;;;;;;;23.33;64.55;95899.53;4990368;28;24507;-75
2022/05/11 08:21:47;;;;;;;8.70;3.38;;;;;;;23.54;60.62;95895.47;4990762;28;24433;-75
2022/05/11 08:24:15;;;;;;;5.73;3.57;;;;;;;23.27;62.21;95894.13;4993402;28;24507;-75
2022/05/11 08:26:42;;;;;;;3.22;2.92;;;;;;;23.50;60.35;95888.88;4993995;28;24441;-75
2022/05/11 08:29:09;;;;;;;7.22;3.13;;;;;;;23.35;61.11;95888.78;4994196;28;24491;-75
2022/05/11 08:34:20;;;;;;;3.50;2.83;;;;;;;23.89;61.00;95888.84;4993803;28;24455;-75
2022/05/11 08:36:47;;;;;;;4.47;3.20;;;;;;;23.91;61.34;95874.44;4993487;28;25033;-74
2022/05/11 08:39:14;;;;;;;10.50;3.08;;;;;;;24.32;59.88;95879.41;4993680;28;24521;-72
2022/05/11 08:41:47;;;;;;;4.93;2.88;;;;;;;24.41;60.67;95876.72;4993673;28;24576;-72
2022/05/11 08:44:16;;;;;;;6.93;3.20;;;;;;;24.71;57.28;95867.00;4993592;28;24785;-72
2022/05/11 08:47:02;;;;;;;4.90;3.20;;;;;;;24.71;58.59;95870.47;4993680;28;24444;-74
2022/05/11 08:49:50;;;;;;;3.70;2.95;;;;;;;24.73;57.09;95872.91;4993941;28;24997;-72
2022/05/11 08:52:28;;;;;;;7.30;3.13;;;;;;;24.84;55.72;95865.38;4981657;28;24499;-72
2022/05/11 08:55:01;;;;;;;4.22;2.67;;;;;;;24.70;53.69;95868.81;4993260;28;24436;-72
2022/05/11 08:57:28;;;;;;;4.32;2.67;;;;;;;24.34;53.27;95858.88;4993278;28;24448;-72
2022/05/11 08:59:59;;;;;;;4.30;2.60;;;;;;;24.65;55.17;95865.88;4992979;28;24456;-72
2022/05/11 09:02:29;;;;;;;4.55;2.97;;;;;;;24.74;56.05;95862.16;4993532;28;24439;-72
2022/05/11 09:04:58;;;;;;;6.90;2.90;;;;;;;24.94;54.09;95856.31;4993553;28;24846;-72
2022/05/11 09:07:28;;;;;;;3.03;2.70;;;;;;;25.08;54.86;95855.47;4993365;28;24487;-72
2022/05/11 09:09:55;;;;;;;4.55;3.10;;;;;;;25.19;51.49;95852.41;4993118;28;24483;-72
2022/05/11 09:12:22;;;;;;;6.90;3.25;;;;;;;25.08;54.34;95852.84;4993427;28;24444;-72
2022/05/11 09:14:52;;;;;;;4.43;2.90;;;;;;;24.86;54.89;95857.22;4992326;28;24496;-72
2022/05/11 09:17:25;;;;;;;5.30;2.88;;;;;;;24.96;53.31;95856.97;4992573;28;24445;-74
2022/05/11 09:20:04;;;;;;;4.25;2.83;;;;;;;24.72;55.02;95850.09;4992487;28;24990;-74
2022/05/11 09:22:34;;;;;;;5.15;3.30;;;;;;;24.26;56.34;95851.00;4992765;28;24835;-74
2022/05/11 09:25:14;;;;;;;4.82;2.53;;;;;;;24.25;53.65;95846.72;4992825;28;24802;-74
2022/05/11 09:27:41;;;;;;;5.97;2.50;;;;;;;24.26;51.71;95837.78;4992732;28;25073;-74
2022/05/11 09:30:17;;;;;;;4.30;2.65;;;;;;;24.19;51.41;95839.50;4992477;28;25040;-75
2022/05/11 09:32:44;;;;;;;3.63;2.50;;;;;;;24.20;49.63;95838.50;4992802;28;24654;-75
2022/05/11 09:35:27;;;;;;;3.73;2.80;;;;;;;24.48;49.57;95836.13;4991548;28;24440;-74
2022/05/11 09:38:00;;;;;;;5.05;2.85;;;;;;;24.50;48.15;95833.28;4992907;28;24444;-74
2022/05/11 09:40:27;;;;;;;3.08;2.47;;;;;;;24.43;49.63;95827.88;4992406;28;24459;-75
2022/05/11 09:42:55;;;;;;;5.82;2.75;;;;;;;24.73;47.60;95827.91;4992017;28;24842;-75
2022/05/11 09:45:41;;;;;;;4.88;2.42;;;;;;;24.81;47.60;95839.25;4992395;28;24509;-75
2022/05/11 09:48:19;;;;;;;4.22;2.65;;;;;;;25.01;46.99;95836.84;4992647;28;24509;-75
2022/05/11 09:50:48;;;;;;;5.05;2.70;;;;;;;24.91;46.34;95838.13;4992299;28;24488;-74
2022/05/11 09:53:27;;;;;;;4.60;2.78;;;;;;;24.85;46.83;95837.06;4992532;28;24435;-75
2022/05/11 09:55:54;;;;;;;3.65;2.60;;;;;;;25.06;44.92;95829.16;4992208;28;24433;-75
2022/05/11 09:58:30;;;;;;;5.60;2.72;;;;;;;24.72;44.56;95832.38;4991632;28;24437;-75
2022/05/11 10:01:10;;;;;;;8.18;2.60;;;;;;;24.83;43.83;95818.66;4977085;28;24532;-75
2022/05/11 10:03:41;;;;;;;4.67;2.67;;;;;;;25.26;45.03;95837.41;4992089;28;24524;-74
2022/05/11 10:06:09;;;;;;;3.80;2.70;;;;;;;25.42;43.60;95825.75;4992121;28;25033;-75
2022/05/11 10:08:43;;;;;;;7.38;2.28;;;;;;;25.36;41.38;95821.16;4991827;28;24549;-74
2022/05/11 10:11:16;;;;;;;8.10;2.50;;;;;;;25.49;41.35;95825.81;4991786;28;24532;-73
2022/05/11 10:13:47;;;;;;;3.85;2.55;;;;;;;25.67;40.93;95812.94;4991759;28;24532;-73
2022/05/11 10:22:07;;;;;;;4.82;2.33;;;;;;;25.94;41.16;95814.03;4991994;28;24436;-74
2022/05/11 10:24:46;;;;;;;3.30;2.17;;;;;;;25.97;40.87;95816.31;4992000;28;24491;-76
2022/05/11 10:27:19;;;;;;;4.22;2.40;;;;;;;26.10;40.07;95809.47;4991743;28;24811;-74
2022/05/11 10:29:58;;;;;;;7.88;2.50;;;;;;;25.97;39.82;95794.28;4991320;28;24573;-74
2022/05/11 10:32:35;;;;;;;5.45;2.60;;;;;;;26.22;37.84;95797.34;4991126;28;24432;-74
2022/05/11 10:35:10;;;;;;;4.18;2.53;;;;;;;26.02;38.61;95808.59;4991372;28;24444;-74
2022/05/11 10:37:41;;;;;;;3.85;2.20;;;;;;;26.11;38.98;95811.94;4991454;28;24448;-74
2022/05/11 10:40:20;;;;;;;4.15;2.25;;;;;;;26.27;38.13;95797.56;4990214;28;24476;-74
2022/05/11 10:42:58;;;;;;;8.57;2.60;;;;;;;26.34;37.94;95800.28;4990888;28;25013;-74
2022/05/11 10:45:31;;;;;;;4.00;2.33;;;;;;;26.39;38.08;95797.84;4991062;28;24433;-74
2022/05/11 10:48:10;;;;;;;4.33;2.23;;;;;;;26.14;37.31;95789.50;4990877;28;24441;-74
2022/05/11 10:50:52;;;;;;;4.05;2.08;;;;;;;26.17;37.41;95778.50;4991286;28;24483;-74
2022/05/11 10:53:28;;;;;;;4.53;2.57;;;;;;;26.24;37.89;95790.81;4990854;28;24440;-74
2022/05/11 10:56:13;;;;;;;2.28;2.08;;;;;;;26.26;37.64;95780.00;4991128;28;24445;-74
2022/05/11 10:58:58;;;;;;;6.82;2.42;;;;;;;26.44;37.09;95776.84;4991137;28;24970;-74
2022/05/11 11:01:31;;;;;;;4.13;2.22;;;;;;;26.42;36.59;95766.41;4991521;28;24444;-74
2022/05/11 11:04:09;;;;;;;3.53;2.28;;;;;;;26.40;37.16;95770.28;4991014;28;24444;-74
2022/05/11 11:09:43;;;;;;;4.88;2.05;;;;;;;26.37;35.28;95773.34;4991345;28;24938;-74
2022/05/11 11:12:28;;;;;;;5.53;2.65;;;;;;;26.36;36.21;95767.19;4990305;28;24799;-75
2022/05/11 11:14:57;;;;;;;7.03;2.60;;;;;;;26.35;35.83;95765.56;4981426;28;24520;-75
2022/05/11 11:17:26;;;;;;;5.82;2.38;;;;;;;26.29;36.35;95759.19;4990553;28;24503;-75
2022/05/11 11:19:55;;;;;;;4.18;2.42;;;;;;;26.36;35.65;95761.06;4990917;28;24456;-75
2022/05/11 11:22:21;;;;;;;3.95;2.65;;;;;;;26.16;36.31;95758.28;4991027;28;24445;-74
2022/05/11 11:25:21;;;;;;;3.08;2.30;;;;;;;26.36;34.62;95751.25;4990809;28;24435;-74
2022/05/11 11:28:08;;;;;;;6.15;2.13;;;;;;;26.29;33.79;95755.69;4990344;28;24994;-74
2022/05/11 11:30:35;;;;;;;4.28;2.38;;;;;;;26.41;34.19;95742.72;4987751;28;24429;-75
2022/05/11 11:33:21;;;;;;;5.05;2.25;;;;;;;26.42;35.26;95744.34;4990191;28;24429;-75
2022/05/11 11:35:54;;;;;;;3.80;2.33;;;;;;;26.47;34.54;95739.28;4990743;28;24444;-74
2022/05/11 11:38:24;;;;;;;2.55;2.13;;;;;;;26.51;35.21;95744.03;4990878;28;24532;-73
2022/05/11 11:41:10;;;;;;;3.60;2.10;;;;;;;26.55;34.05;95741.81;4990786;28;24555;-74
2022/05/11 11:43:45;;;;;;;4.73;2.40;;;;;;;26.73;33.95;95741.28;4990481;28;25077;-74
2022/05/11 11:46:28;;;;;;;4.53;2.17;;;;;;;26.72;34.24;95729.00;4990628;28;24441;-74
2022/05/11 11:49:03;;;;;;;2.33;1.83;;;;;;;26.71;32.22;95733.50;4990255;28;24536;-74
2022/05/11 11:51:51;;;;;;;3.25;2.30;;;;;;;26.73;32.35;95738.63;4976307;28;24440;-74
2022/05/11 11:54:28;;;;;;;4.68;1.90;;;;;;;26.73;33.42;95728.81;4990069;28;24456;-74
2022/05/11 11:56:55;;;;;;;3.22;2.10;;;;;;;26.88;32.94;95722.53;4991630;28;24444;-74
2022/05/11 11:59:38;;;;;;;7.10;2.00;;;;;;;26.84;31.85;95711.47;4997133;28;24504;-74
2022/05/11 12:02:15;;;;;;;6.18;1.98;;;;;;;26.82;32.56;95721.50;4997160;28;24548;-72
2022/05/11 12:04:44;;;;;;;2.85;2.03;;;;;;;26.97;33.40;95714.19;4992917;28;24441;-75
2022/05/11 12:15:41;;;;;;;7.75;2.22;;;;;;;26.68;30.65;95704.69;4994245;28;24428;-74
2022/05/11 12:18:24;;;;;;;3.30;2.42;;;;;;;26.68;33.26;95704.69;4993850;28;21306;-74
2022/05/11 12:20:52;;;;;;;4.60;2.17;;;;;;;26.79;32.36;95704.09;4994217;28;24524;-74
2022/05/11 12:23:22;;;;;;;2.55;2.05;;;;;;;26.83;34.04;95706.38;4994344;28;24424;-74